Time;durP1;ratioP1;P1;durP2;ratioP2;P2;SDS_P1;SDS_P2;PMS_P1;PMS_P2;Temp;Humidity;BMP_temperature;BMP_pressure;BME280_temperature;BME280_humidity;BME280_pressure;Samples;Min_cycle;Max_cycle;Signal;HPM_P1;HPM_P2
2022/04/01 00:02:25;;;;;;;0.30;0.10;;;3.90;99.90;;;;;;5063751;28;20473;-83
2022/04/01 00:04:52;;;;;;;0.30;0.10;;;3.80;99.90;;;;;;5062934;28;20451;-82
2022/04/01 00:07:20;;;;;;;0.30;0.10;;;3.90;99.90;;;;;;5062993;28;20510;-83
2022/04/01 00:09:47;;;;;;;0.30;0.20;;;3.90;99.90;;;;;;5063660;28;20497;-83
2022/04/01 00:12:14;;;;;;;0.30;0.20;;;3.80;99.90;;;;;;5066291;28;21111;-85
2022/04/01 00:14:41;;;;;;;0.30;0.10;;;3.70;99.90;;;;;;5064648;28;21242;-83
2022/04/01 00:17:09;;;;;;;0.30;0.20;;;3.70;99.90;;;;;;5068480;28;20981;-82
2022/04/01 00:19:36;;;;;;;0.30;0.10;;;3.80;99.90;;;;;;5068118;28;20459;-85
2022/04/01 00:22:04;;;;;;;0.30;0.10;;;3.80;99.90;;;;;;5064822;28;20995;-83
2022/04/01 00:24:33;;;;;;;0.30;0.10;;;3.90;99.90;;;;;;5058958;28;20444;-83
2022/04/01 00:27:00;;;;;;;0.30;0.17;;;3.80;99.90;;;;;;5069000;28;20451;-85
2022/04/01 00:29:27;;;;;;;0.30;0.13;;;3.80;99.90;;;;;;5064196;28;20470;-85
2022/04/01 00:32:00;;;;;;;0.30;0.20;;;3.70;99.90;;;;;;5068154;28;20531;-83
2022/04/01 00:34:27;;;;;;;0.30;0.10;;;3.70;99.90;;;;;;5059960;28;20456;-83
2022/04/01 00:36:55;;;;;;;0.43;0.40;;;3.80;99.90;;;;;;5068225;28;20935;-82
2022/04/01 00:39:24;;;;;;;0.30;0.10;;;3.70;99.90;;;;;;5064575;28;20456;-83
2022/04/01 00:41:53;;;;;;;0.30;0.10;;;3.70;99.90;;;;;;5067596;28;21220;-82
2022/04/01 00:44:23;;;;;;;0.60;0.47;;;3.80;99.90;;;;;;5068278;28;20471;-83
2022/04/01 00:46:52;;;;;;;0.30;0.10;;;3.80;99.90;;;;;;5065953;28;20467;-83
2022/04/01 00:49:20;;;;;;;0.30;0.10;;;3.80;99.90;;;;;;5067888;28;20481;-83
2022/04/01 00:51:49;;;;;;;0.30;0.10;;;3.70;99.90;;;;;;5066363;28;20978;-82
2022/04/01 00:54:17;;;;;;;0.47;0.47;;;3.80;99.90;;;;;;5067678;28;20448;-83
2022/04/01 00:56:45;;;;;;;0.30;0.20;;;3.70;99.90;;;;;;5061346;28;20461;-83
2022/04/01 00:59:14;;;;;;;0.30;0.20;;;3.70;99.90;;;;;;5061053;28;20448;-84
2022/04/01 01:01:43;;;;;;;0.30;0.20;;;3.70;99.90;;;;;;5063734;28;20479;-88
2022/04/01 01:04:12;;;;;;;0.30;0.10;;;3.70;99.90;;;;;;5061132;28;20927;-82
2022/04/01 01:06:42;;;;;;;0.30;0.10;;;3.70;99.90;;;;;;5071295;28;20498;-83
2022/04/01 01:09:09;;;;;;;0.30;0.10;;;3.70;99.90;;;;;;5069262;28;20476;-83
2022/04/01 01:11:37;;;;;;;0.30;0.10;;;3.70;99.90;;;;;;5062827;28;20452;-83
2022/04/01 01:14:05;;;;;;;0.30;0.20;;;3.70;99.90;;;;;;5057944;28;20482;-83
2022/04/01 01:16:34;;;;;;;0.30;0.20;;;3.70;99.90;;;;;;5066288;28;20464;-87
2022/04/01 01:19:03;;;;;;;0.30;0.20;;;3.80;99.90;;;;;;5066402;28;20480;-83
2022/04/01 01:21:31;;;;;;;0.30;0.10;;;3.70;99.90;;;;;;5060221;28;20475;-83
2022/04/01 01:24:01;;;;;;;0.30;0.20;;;3.60;99.90;;;;;;5062065;28;20514;-83
2022/04/01 01:26:30;;;;;;;0.30;0.10;;;3.60;99.90;;;;;;5060367;28;21037;-83
2022/04/01 01:28:58;;;;;;;0.30;0.10;;;3.60;99.90;;;;;;5063576;28;20459;-84
2022/04/01 01:31:25;;;;;;;0.40;0.37;;;3.60;99.90;;;;;;5059121;28;20434;-88
2022/04/01 01:33:54;;;;;;;1.07;1.00;;;3.70;99.90;;;;;;5053390;28;20463;-86
2022/04/01 01:36:22;;;;;;;0.30;0.10;;;3.60;99.90;;;;;;5060280;28;20444;-84
2022/04/01 01:38:49;;;;;;;0.30;0.10;;;3.60;99.90;;;;;;5062093;28;20467;-84
2022/04/01 01:41:16;;;;;;;0.30;0.20;;;3.60;99.90;;;;;;5061248;28;20499;-86
2022/04/01 01:43:45;;;;;;;0.30;0.10;;;3.60;99.90;;;;;;5061230;28;20872;-83
2022/04/01 01:46:12;;;;;;;0.30;0.10;;;3.60;99.90;;;;;;5062104;28;20519;-87
2022/04/01 01:48:39;;;;;;;0.30;0.10;;;3.60;99.90;;;;;;5062883;28;20513;-88
2022/04/01 01:56:34;;;;;;;0.30;0.10;;;3.50;99.90;;;;;;5063969;28;20551;-85
2022/04/01 01:59:04;;;;;;;0.30;0.10;;;3.60;99.90;;;;;;5066311;28;20544;-84
2022/04/01 02:01:31;;;;;;;0.60;0.60;;;3.60;99.90;;;;;;5062547;28;20803;-84
2022/04/01 02:04:00;;;;;;;0.50;0.50;;;3.60;99.90;;;;;;5063381;28;20459;-84
2022/04/01 02:06:27;;;;;;;0.30;0.10;;;3.50;99.90;;;;;;5062203;28;21014;-87
2022/04/01 02:08:54;;;;;;;0.30;0.10;;;3.50;99.90;;;;;;5067988;28;20960;-84
2022/04/01 02:11:22;;;;;;;0.30;0.10;;;3.50;99.90;;;;;;5066074;28;20931;-84
2022/04/01 02:13:50;;;;;;;0.30;0.10;;;3.60;99.90;;;;;;5061235;28;20468;-83
2022/04/01 02:16:21;;;;;;;0.30;0.10;;;3.60;99.90;;;;;;5055302;28;20460;-86
2022/04/01 02:18:49;;;;;;;0.30;0.10;;;3.40;99.90;;;;;;5060743;28;20456;-84
2022/04/01 02:21:16;;;;;;;0.40;0.30;;;3.50;99.90;;;;;;5057366;28;20460;-83
2022/04/01 02:23:46;;;;;;;0.30;0.10;;;3.60;99.90;;;;;;5062803;28;20475;-84
2022/04/01 02:26:14;;;;;;;0.30;0.10;;;3.50;99.90;;;;;;5061776;28;20502;-82
2022/04/01 02:28:42;;;;;;;0.30;0.10;;;3.60;99.90;;;;;;5066284;28;20525;-82
2022/04/01 02:31:11;;;;;;;0.30;0.20;;;3.60;99.90;;;;;;5062336;28;22373;-83
2022/04/01 02:33:40;;;;;;;0.30;0.10;;;3.60;99.90;;;;;;5060783;28;21510;-81
2022/04/01 02:36:10;;;;;;;0.30;0.10;;;3.60;99.90;;;;;;5067297;28;20926;-82
2022/04/01 02:38:39;;;;;;;0.57;0.40;;;3.50;99.90;;;;;;5058597;28;20550;-82
2022/04/01 02:41:07;;;;;;;0.30;0.20;;;3.60;99.90;;;;;;5061540;28;20456;-82
2022/04/01 02:43:35;;;;;;;0.30;0.10;;;3.50;99.90;;;;;;5053990;28;20537;-85
2022/04/01 02:46:02;;;;;;;1.17;0.97;;;3.40;99.90;;;;;;5067438;28;20711;-82
2022/04/01 02:48:29;;;;;;;0.30;0.10;;;3.50;99.90;;;;;;5061972;28;20497;-82
2022/04/01 02:50:58;;;;;;;0.53;0.53;;;3.40;99.90;;;;;;5060424;28;20460;-82
2022/04/01 02:53:25;;;;;;;0.60;0.30;;;3.30;99.90;;;;;;5064715;28;20480;-87
2022/04/01 02:55:52;;;;;;;0.30;0.10;;;3.40;99.90;;;;;;5060903;28;20938;-82
2022/04/01 02:58:19;;;;;;;0.40;0.30;;;3.50;99.90;;;;;;5060932;28;20472;-82
2022/04/01 03:00:46;;;;;;;0.30;0.10;;;3.40;99.90;;;;;;5060561;28;20455;-83
2022/04/01 03:03:13;;;;;;;0.30;0.10;;;3.40;99.90;;;;;;5068645;28;20484;-84
2022/04/01 03:05:42;;;;;;;0.30;0.10;;;3.50;99.90;;;;;;5066474;28;20483;-82
2022/04/01 03:08:11;;;;;;;0.30;0.20;;;3.40;99.90;;;;;;5070522;28;20455;-82
2022/04/01 03:10:39;;;;;;;0.40;0.20;;;3.40;99.90;;;;;;5065658;28;20461;-84
2022/04/01 03:13:08;;;;;;;0.30;0.10;;;3.50;99.90;;;;;;5054487;28;20464;-82
2022/04/01 03:15:36;;;;;;;0.40;0.30;;;3.50;99.90;;;;;;5063122;28;20452;-81
2022/04/01 03:18:04;;;;;;;0.30;0.10;;;3.40;99.90;;;;;;5059122;28;21004;-82
2022/04/01 03:20:33;;;;;;;0.80;0.70;;;3.50;99.90;;;;;;5063286;28;20567;-83
2022/04/01 03:23:00;;;;;;;0.30;0.10;;;3.40;99.90;;;;;;5063041;28;20478;-86
2022/04/01 03:25:32;;;;;;;0.30;0.20;;;3.40;99.90;;;;;;5064668;28;20522;-84
2022/04/01 03:28:01;;;;;;;0.63;0.23;;;3.40;99.90;;;;;;5066008;28;20821;-82
2022/04/01 03:30:28;;;;;;;0.30;0.10;;;3.40;99.90;;;;;;5059346;28;20550;-83
2022/04/01 03:32:56;;;;;;;0.30;0.10;;;3.40;99.90;;;;;;5059916;28;20543;-86
2022/04/01 03:35:24;;;;;;;0.30;0.10;;;3.40;99.90;;;;;;5072096;28;20440;-82
2022/04/01 03:37:52;;;;;;;0.40;0.20;;;3.40;99.90;;;;;;5055442;28;20758;-82
2022/04/01 03:40:21;;;;;;;0.30;0.20;;;3.40;99.90;;;;;;5068100;28;20800;-85
2022/04/01 03:42:55;;;;;;;0.30;0.20;;;3.30;99.90;;;;;;5061013;28;20480;-86
2022/04/01 03:45:24;;;;;;;2.47;2.37;;;3.40;99.90;;;;;;5062897;28;20468;-82
2022/04/01 03:47:56;;;;;;;0.30;0.10;;;3.50;99.90;;;;;;5066558;28;20776;-85
2022/04/01 03:50:30;;;;;;;0.40;0.30;;;3.50;99.90;;;;;;5061037;28;20456;-84
2022/04/01 03:53:05;;;;;;;0.30;0.10;;;3.40;99.90;;;;;;5047989;28;20475;-81
2022/04/01 03:55:33;;;;;;;0.30;0.10;;;3.40;99.90;;;;;;5056922;28;20941;-81
2022/04/01 03:58:08;;;;;;;0.30;0.10;;;3.40;99.90;;;;;;5070567;28;20927;-84
2022/04/01 04:00:35;;;;;;;0.30;0.10;;;3.50;99.90;;;;;;5054455;28;20534;-85
2022/04/01 04:03:07;;;;;;;0.30;0.10;;;3.40;99.90;;;;;;5056717;28;20484;-82
2022/04/01 04:05:36;;;;;;;0.30;0.10;;;3.40;99.90;;;;;;5058488;28;20469;-82
2022/04/01 04:08:03;;;;;;;0.30;0.10;;;3.40;99.90;;;;;;5058882;28;20902;-82
2022/04/01 04:10:32;;;;;;;0.30;0.10;;;3.50;99.90;;;;;;5056202;28;20532;-82
2022/04/01 04:13:00;;;;;;;0.30;0.20;;;3.50;99.90;;;;;;5056861;28;21151;-83
2022/04/01 04:15:42;;;;;;;0.30;0.10;;;3.50;99.90;;;;;;5060884;28;20536;-82
2022/04/01 04:18:13;;;;;;;0.30;0.10;;;3.40;99.90;;;;;;5065985;28;20443;-82
2022/04/01 04:20:49;;;;;;;0.30;0.20;;;3.40;99.90;;;;;;5059113;28;20489;-82
2022/04/01 04:23:20;;;;;;;0.30;0.10;;;3.40;99.90;;;;;;5064714;28;20479;-85
2022/04/01 04:26:00;;;;;;;0.30;0.10;;;3.30;99.90;;;;;;5061053;28;20514;-82
2022/04/01 04:28:28;;;;;;;0.30;0.10;;;3.30;99.90;;;;;;5058306;28;20851;-84
2022/04/01 04:31:02;;;;;;;0.30;0.10;;;3.30;99.90;;;;;;5065162;28;20522;-81
2022/04/01 04:33:30;;;;;;;0.33;0.30;;;3.30;99.90;;;;;;5056941;28;20469;-86
2022/04/01 04:36:04;;;;;;;0.30;0.20;;;3.30;99.90;;;;;;5053001;28;20461;-85
2022/04/01 04:38:37;;;;;;;0.30;0.10;;;3.20;99.90;;;;;;5057200;28;20477;-86
2022/04/01 04:41:08;;;;;;;0.30;0.10;;;3.20;99.90;;;;;;5063656;28;20453;-87
2022/04/01 04:43:39;;;;;;;0.30;0.10;;;3.20;99.90;;;;;;5064606;28;20483;-88
2022/04/01 04:46:08;;;;;;;0.30;0.30;;;3.20;99.90;;;;;;5060918;28;21062;-87
2022/04/01 04:48:36;;;;;;;0.30;0.10;;;3.20;99.90;;;;;;5054171;28;20786;-85
2022/04/01 04:51:05;;;;;;;0.87;0.40;;;3.20;99.90;;;;;;5057875;28;20986;-85
2022/04/01 04:53:34;;;;;;;0.30;0.10;;;3.30;99.90;;;;;;5064895;28;20471;-86
2022/04/01 04:56:02;;;;;;;0.77;0.20;;;3.30;99.90;;;;;;5070306;28;20508;-84
2022/04/01 04:58:34;;;;;;;0.30;0.10;;;3.30;99.90;;;;;;5061682;28;20456;-84
2022/04/01 05:01:03;;;;;;;1.07;1.03;;;3.20;99.90;;;;;;5057892;28;20468;-86
2022/04/01 05:03:56;;;;;;;0.30;0.10;;;3.20;99.90;;;;;;5061016;28;20474;-85
2022/04/01 05:06:28;;;;;;;0.30;0.10;;;3.20;99.90;;;;;;5056377;28;20197;-85
2022/04/01 05:09:01;;;;;;;0.30;0.10;;;3.30;99.90;;;;;;5062314;28;20455;-86
2022/04/01 05:11:41;;;;;;;0.30;0.10;;;3.30;99.90;;;;;;5059129;28;20541;-85
2022/04/01 05:14:21;;;;;;;0.30;0.20;;;3.20;99.90;;;;;;5059859;28;20461;-85
2022/04/01 05:16:54;;;;;;;0.57;0.47;;;3.20;99.90;;;;;;5061360;28;20577;-85
2022/04/01 05:19:26;;;;;;;0.50;0.30;;;3.30;99.90;;;;;;5049868;28;20490;-86
2022/04/01 05:22:01;;;;;;;0.30;0.30;;;3.30;99.90;;;;;;5051523;28;20566;-86
2022/04/01 05:24:33;;;;;;;2.20;0.63;;;3.30;99.90;;;;;;5053882;28;20961;-85
2022/04/01 05:27:05;;;;;;;0.30;0.20;;;3.30;99.90;;;;;;5058082;28;20472;-85
2022/04/01 05:29:38;;;;;;;0.30;0.20;;;3.30;99.90;;;;;;5051052;28;21026;-85
2022/04/01 05:32:07;;;;;;;0.97;0.90;;;3.30;99.90;;;;;;5046043;28;20459;-85
2022/04/01 05:34:43;;;;;;;0.30;0.20;;;3.30;99.90;;;;;;5050662;28;20514;-87
2022/04/01 05:37:10;;;;;;;0.30;0.10;;;3.40;99.90;;;;;;5050745;28;20456;-86
2022/04/01 05:39:41;;;;;;;0.30;0.10;;;3.40;99.90;;;;;;5041899;28;21388;-85
2022/04/01 05:42:09;;;;;;;0.30;0.20;;;3.40;99.90;;;;;;5048203;28;20460;-84
2022/04/01 05:44:37;;;;;;;0.30;0.10;;;3.40;99.90;;;;;;5056421;28;20542;-86
2022/04/01 05:47:06;;;;;;;0.30;0.20;;;3.50;99.90;;;;;;5061435;28;20459;-84
2022/04/01 05:49:35;;;;;;;0.30;0.10;;;3.50;99.90;;;;;;5042877;28;20760;-87
2022/04/01 05:52:05;;;;;;;0.40;0.30;;;3.50;99.90;;;;;;5046910;28;20502;-88
2022/04/01 05:54:35;;;;;;;0.30;0.10;;;3.50;99.90;;;;;;5049057;28;20449;-85
2022/04/01 05:57:05;;;;;;;0.30;0.20;;;3.40;99.90;;;;;;5036527;28;20955;-86
2022/04/01 05:59:33;;;;;;;1.07;0.40;;;3.40;99.90;;;;;;5051658;28;20471;-85
2022/04/01 06:02:22;;;;;;;0.30;0.20;;;3.30;99.90;;;;;;5050418;28;20460;-85
2022/04/01 06:05:14;;;;;;;0.30;0.20;;;3.40;99.90;;;;;;5050606;28;20477;-85
2022/04/01 06:08:01;;;;;;;0.30;0.30;;;3.50;99.90;;;;;;5051872;28;20464;-85
2022/04/01 06:10:39;;;;;;;0.30;0.10;;;3.50;99.90;;;;;;5046792;28;20523;-89
2022/04/01 06:13:16;;;;;;;0.30;0.10;;;3.70;99.90;;;;;;5053593;28;20471;-85
2022/04/01 06:15:57;;;;;;;0.30;0.10;;;3.70;99.90;;;;;;5058748;28;20580;-88
2022/04/01 06:18:34;;;;;;;0.30;0.10;;;3.70;99.90;;;;;;5052437;28;21044;-86
2022/04/01 06:21:04;;;;;;;0.30;0.10;;;3.60;99.90;;;;;;5045388;28;20988;-85
2022/04/01 06:23:43;;;;;;;0.30;0.20;;;3.60;99.90;;;;;;5048351;28;20485;-84
2022/04/01 06:26:14;;;;;;;0.30;0.10;;;3.50;99.90;;;;;;5038745;28;20464;-84
2022/04/01 06:28:50;;;;;;;0.30;0.10;;;3.60;99.90;;;;;;5044440;28;20553;-85
2022/04/01 06:31:22;;;;;;;0.30;0.10;;;3.60;99.90;;;;;;5047404;28;20948;-84
2022/04/01 06:33:59;;;;;;;2.50;2.00;;;3.50;99.90;;;;;;5045934;28;20532;-85
2022/04/01 06:36:31;;;;;;;0.30;0.20;;;3.50;99.90;;;;;;5040395;28;21491;-84
2022/04/01 06:39:05;;;;;;;0.30;0.10;;;3.60;99.90;;;;;;5057231;28;20956;-86
2022/04/01 06:41:42;;;;;;;0.30;0.10;;;3.50;99.90;;;;;;5055173;28;20853;-84
2022/04/01 06:44:09;;;;;;;0.30;0.20;;;3.40;99.90;;;;;;5049175;28;20537;-85
2022/04/01 06:46:37;;;;;;;0.30;0.10;;;3.60;99.90;;;;;;5059660;28;20465;-85
2022/04/01 06:49:08;;;;;;;0.40;0.30;;;3.70;99.90;;;;;;5064058;28;20540;-85
2022/04/01 06:51:36;;;;;;;0.40;0.30;;;3.70;99.90;;;;;;5066357;28;20451;-85
2022/04/01 06:54:05;;;;;;;0.30;0.10;;;3.70;99.90;;;;;;5050397;28;20474;-85
2022/04/01 06:56:32;;;;;;;0.30;0.17;;;3.70;99.90;;;;;;5067874;28;20463;-85
2022/04/01 06:58:59;;;;;;;0.30;0.20;;;3.70;99.90;;;;;;5052916;28;20460;-85
2022/04/01 07:01:26;;;;;;;1.00;0.93;;;3.70;99.90;;;;;;5057426;28;20510;-85
2022/04/01 07:03:53;;;;;;;0.30;0.10;;;3.90;99.90;;;;;;5060572;28;20544;-86
2022/04/01 07:06:22;;;;;;;1.17;1.10;;;4.00;99.90;;;;;;5068286;28;20890;-85
2022/04/01 07:08:49;;;;;;;0.70;0.70;;;3.90;99.90;;;;;;5075779;28;21029;-86
2022/04/01 07:11:19;;;;;;;0.30;0.10;;;3.90;99.90;;;;;;5067481;28;20943;-84
2022/04/01 07:13:46;;;;;;;0.30;0.20;;;4.00;99.90;;;;;;5052852;28;20583;-84
2022/04/01 07:16:14;;;;;;;0.30;0.10;;;4.20;99.90;;;;;;5053490;28;20462;-84
2022/04/01 07:18:41;;;;;;;0.30;0.10;;;4.20;99.90;;;;;;5058366;28;20508;-85
2022/04/01 07:21:08;;;;;;;0.63;0.43;;;4.20;99.90;;;;;;5061727;28;20464;-85
2022/04/01 07:23:37;;;;;;;0.30;0.20;;;4.30;99.90;;;;;;5056490;28;20594;-88
2022/04/01 07:26:04;;;;;;;0.30;0.10;;;4.20;99.90;;;;;;5052662;28;20942;-86
2022/04/01 07:28:33;;;;;;;0.30;0.10;;;4.30;99.90;;;;;;5048723;28;20854;-85
2022/04/01 07:32:28;;;;;;;1.90;1.80;;;4.30;99.90;;;;;;5051434;28;20472;-86
2022/04/01 07:33:48;;;;;;;0.30;0.10;;;4.40;99.90;;;;;;5056339;28;20494;-85
2022/04/01 07:36:15;;;;;;;1.17;0.73;;;4.50;99.90;;;;;;5056539;28;20541;-85
2022/04/01 07:38:42;;;;;;;0.30;0.10;;;4.50;99.90;;;;;;5055685;28;20463;-89
2022/04/01 07:41:10;;;;;;;0.30;0.10;;;4.60;99.90;;;;;;5057222;28;20997;-86
2022/04/01 07:43:40;;;;;;;0.40;0.30;;;4.50;99.90;;;;;;5058837;28;20480;-87
2022/04/01 07:46:07;;;;;;;0.30;0.10;;;4.40;99.90;;;;;;5054140;28;20495;-84
2022/04/01 07:48:34;;;;;;;0.30;0.10;;;4.40;99.90;;;;;;5058335;28;20471;-85
2022/04/01 07:51:02;;;;;;;0.30;0.20;;;4.30;99.90;;;;;;5056564;28;20460;-85
2022/04/01 07:53:30;;;;;;;0.40;0.30;;;4.50;99.90;;;;;;5053070;28;21252;-89
2022/04/01 07:55:57;;;;;;;0.40;0.40;;;4.30;99.90;;;;;;5061283;28;20483;-86
2022/04/01 07:58:24;;;;;;;0.30;0.10;;;4.30;99.90;;;;;;5043981;28;20469;-81
2022/04/01 08:00:52;;;;;;;0.50;0.50;;;4.10;99.90;;;;;;5050708;28;20453;-83
2022/04/01 08:03:19;;;;;;;0.30;0.13;;;4.20;99.90;;;;;;5052241;28;20547;-81
2022/04/01 08:05:46;;;;;;;0.30;0.20;;;4.30;99.90;;;;;;5035411;28;21277;-81
2022/04/01 08:08:14;;;;;;;0.90;0.87;;;4.30;99.90;;;;;;5055848;28;20850;-84
2022/04/01 08:10:42;;;;;;;0.50;0.50;;;4.20;99.90;;;;;;5055436;28;20536;-83
2022/04/01 08:13:11;;;;;;;0.30;0.10;;;4.40;99.90;;;;;;5065553;28;20555;-85
2022/04/01 08:15:38;;;;;;;0.30;0.10;;;4.10;99.90;;;;;;5057065;28;20674;-85
2022/04/01 08:18:07;;;;;;;0.60;0.57;;;4.20;99.90;;;;;;5062079;28;20460;-83
2022/04/01 08:20:34;;;;;;;0.30;0.10;;;4.20;99.90;;;;;;5043474;28;20493;-83
2022/04/01 08:23:02;;;;;;;0.30;0.10;;;4.30;99.90;;;;;;5041846;28;20462;-86
2022/04/01 08:25:29;;;;;;;1.27;1.00;;;4.20;99.90;;;;;;5052990;28;20509;-87
2022/04/01 08:27:56;;;;;;;0.40;0.30;;;4.40;99.90;;;;;;5047400;28;20517;-84
2022/04/01 08:30:23;;;;;;;1.00;0.50;;;4.60;99.90;;;;;;5045501;28;20509;-84
2022/04/01 08:32:50;;;;;;;2.83;2.73;;;4.70;99.90;;;;;;5056848;28;20460;-83
2022/04/01 08:35:18;;;;;;;1.43;0.50;;;4.80;99.90;;;;;;5057814;28;20460;-85
2022/04/01 08:37:46;;;;;;;0.50;0.43;;;5.00;99.90;;;;;;5053284;28;20460;-83
2022/04/01 08:40:13;;;;;;;0.50;0.50;;;5.00;99.90;;;;;;5057230;28;20471;-83
2022/04/01 08:42:46;;;;;;;0.60;0.47;;;5.00;99.90;;;;;;5059790;28;20502;-83
2022/04/01 08:45:13;;;;;;;2.30;2.20;;;5.20;99.90;;;;;;5058167;28;20510;-85
2022/04/01 08:47:40;;;;;;;0.30;0.20;;;5.30;99.90;;;;;;5060280;28;20517;-86
2022/04/01 08:50:09;;;;;;;0.30;0.10;;;5.50;99.90;;;;;;5054314;28;20473;-86
2022/04/01 08:52:38;;;;;;;0.30;0.10;;;5.50;99.90;;;;;;5056916;28;20548;-86
2022/04/01 08:55:07;;;;;;;2.30;1.10;;;5.40;99.90;;;;;;5055284;28;20468;-87
2022/04/01 08:57:38;;;;;;;0.30;0.20;;;5.40;99.90;;;;;;5059126;28;20493;-87
2022/04/01 09:00:33;;;;;;;0.30;0.13;;;5.30;99.90;;;;;;5051138;28;20467;-83
2022/04/01 09:03:02;;;;;;;0.87;0.87;;;5.20;99.90;;;;;;5056424;28;20460;-84
2022/04/01 09:05:29;;;;;;;0.70;0.70;;;5.40;99.90;;;;;;5054617;28;20484;-83
2022/04/01 09:08:06;;;;;;;0.30;0.20;;;5.30;99.90;;;;;;5065663;28;20824;-84
2022/04/01 09:10:49;;;;;;;0.30;0.20;;;5.50;99.90;;;;;;5053010;28;20543;-84
2022/04/01 09:13:16;;;;;;;0.30;0.10;;;5.70;99.90;;;;;;5057563;28;20601;-83
2022/04/01 09:15:44;;;;;;;0.30;0.10;;;6.10;99.90;;;;;;5060328;28;21074;-85
2022/04/01 09:18:11;;;;;;;0.30;0.10;;;6.00;99.90;;;;;;5055656;28;20451;-86
2022/04/01 09:20:46;;;;;;;0.30;0.10;;;6.00;99.90;;;;;;5056474;28;20514;-84
2022/04/01 09:23:21;;;;;;;17.17;1.40;;;5.90;99.90;;;;;;5053886;28;20456;-83
2022/04/01 09:25:49;;;;;;;0.30;0.20;;;5.90;99.90;;;;;;5055180;28;20493;-83
2022/04/01 09:28:26;;;;;;;0.47;0.43;;;6.00;99.90;;;;;;5062828;28;20462;-86
2022/04/01 09:31:06;;;;;;;0.43;0.43;;;5.80;99.90;;;;;;5055349;28;20456;-84
2022/04/01 09:33:49;;;;;;;0.30;0.10;;;5.80;99.90;;;;;;5054131;28;20460;-84
2022/04/01 09:36:18;;;;;;;0.30;0.10;;;6.00;99.90;;;;;;5050853;28;21453;-84
2022/04/01 09:38:58;;;;;;;0.30;0.20;;;6.00;99.90;;;;;;5046782;28;20463;-85
2022/04/01 09:41:33;;;;;;;0.33;0.23;;;6.00;99.90;;;;;;5052002;28;20457;-88
2022/04/01 09:44:09;;;;;;;0.30;0.10;;;6.00;99.90;;;;;;5060201;28;20927;-83
2022/04/01 09:46:40;;;;;;;0.30;0.10;;;5.40;99.90;;;;;;5052318;28;20480;-83
2022/04/01 09:49:08;;;;;;;0.30;0.10;;;5.20;99.90;;;;;;5050421;28;20474;-84
2022/04/01 09:51:35;;;;;;;0.30;0.10;;;5.30;99.90;;;;;;5053275;28;20525;-87
2022/04/01 09:54:05;;;;;;;0.30;0.10;;;5.30;99.90;;;;;;5054913;28;20927;-83
2022/04/01 09:56:41;;;;;;;0.30;0.20;;;5.50;99.90;;;;;;5049521;28;20454;-83
2022/04/01 09:59:09;;;;;;;0.30;0.20;;;5.40;99.90;;;;;;5058182;28;20977;-83
2022/04/01 10:01:37;;;;;;;0.30;0.10;;;5.40;99.90;;;;;;5057536;28;20585;-86
2022/04/01 10:04:05;;;;;;;0.40;0.30;;;5.10;99.90;;;;;;5059477;28;20472;-86
2022/04/01 10:06:33;;;;;;;0.90;0.90;;;5.60;99.90;;;;;;5057515;28;20506;-85
2022/04/01 10:09:03;;;;;;;0.30;0.20;;;5.90;99.90;;;;;;5057479;28;20504;-84
2022/04/01 10:11:32;;;;;;;1.63;1.63;;;5.70;99.90;;;;;;5054816;28;20453;-84
2022/04/01 10:14:03;;;;;;;0.30;0.10;;;5.60;99.90;;;;;;5051633;28;20465;-85
2022/04/01 10:16:34;;;;;;;0.30;0.20;;;5.50;99.90;;;;;;5055665;28;20465;-85
2022/04/01 10:19:06;;;;;;;0.40;0.20;;;5.50;99.90;;;;;;5063608;28;20994;-89
2022/04/01 10:21:34;;;;;;;0.30;0.10;;;5.80;99.90;;;;;;5062528;28;20933;-83
2022/04/01 10:24:11;;;;;;;0.30;0.20;;;6.00;99.90;;;;;;5057861;28;20462;-84
2022/04/01 10:26:43;;;;;;;0.30;0.20;;;6.00;99.90;;;;;;5054713;28;21140;-84
2022/04/01 10:29:11;;;;;;;0.30;0.10;;;6.10;99.90;;;;;;5065469;28;21172;-86
2022/04/01 10:31:39;;;;;;;1.03;1.03;;;6.10;99.90;;;;;;5069921;28;20450;-86
2022/04/01 10:34:22;;;;;;;0.30;0.10;;;6.20;99.90;;;;;;5069560;28;20466;-85
2022/04/01 10:36:57;;;;;;;0.30;0.10;;;6.60;99.90;;;;;;5066744;28;21001;-84
2022/04/01 10:39:29;;;;;;;0.80;0.80;;;6.70;99.90;;;;;;5055193;28;20539;-84
2022/04/01 10:42:13;;;;;;;0.30;0.20;;;6.80;99.90;;;;;;5059626;28;20463;-84
2022/04/01 10:44:47;;;;;;;0.40;0.30;;;7.20;99.90;;;;;;5064377;28;20585;-86
2022/04/01 10:47:14;;;;;;;0.50;0.50;;;7.70;99.90;;;;;;5054737;28;20462;-85
2022/04/01 10:52:27;;;;;;;0.40;0.40;;;7.30;99.90;;;;;;5062002;28;20523;-86
2022/04/01 10:55:16;;;;;;;0.40;0.20;;;7.30;99.90;;;;;;5061413;28;20880;-84
2022/04/01 10:57:45;;;;;;;0.50;0.50;;;7.40;99.90;;;;;;5063928;28;20444;-87
2022/04/01 11:00:15;;;;;;;0.30;0.10;;;7.60;99.90;;;;;;5065955;28;20815;-86
2022/04/01 11:03:10;;;;;;;0.30;0.10;;;7.40;99.90;;;;;;5050742;28;20462;-88
2022/04/01 11:05:37;;;;;;;0.30;0.10;;;7.70;99.90;;;;;;5047082;28;21257;-86
2022/04/01 11:08:21;;;;;;;0.30;0.20;;;7.60;99.90;;;;;;5062840;28;20466;-86
2022/04/01 11:11:09;;;;;;;0.30;0.10;;;7.60;99.90;;;;;;5049137;28;20467;-86
2022/04/01 11:13:38;;;;;;;0.30;0.20;;;7.70;99.90;;;;;;5056275;28;20458;-86
2022/04/01 11:16:21;;;;;;;0.57;0.50;;;7.40;99.90;;;;;;5049932;28;20478;-87
2022/04/01 11:19:17;;;;;;;0.30;0.10;;;7.20;99.90;;;;;;5052536;28;20555;-87
2022/04/01 11:21:46;;;;;;;0.30;0.10;;;7.30;99.90;;;;;;5050703;28;21079;-88
2022/04/01 11:24:38;;;;;;;0.30;0.17;;;7.30;99.90;;;;;;5060949;28;20515;-87
2022/04/01 11:27:24;;;;;;;0.30;0.20;;;7.20;99.90;;;;;;5053882;28;20563;-88
2022/04/01 11:30:06;;;;;;;0.30;0.20;;;7.00;99.90;;;;;;5054912;28;20462;-87
2022/04/01 11:32:35;;;;;;;0.30;0.20;;;7.40;99.90;;;;;;5054318;28;20550;-87
2022/04/01 11:35:04;;;;;;;0.30;0.10;;;7.70;99.90;;;;;;5058181;28;20459;-87
2022/04/01 11:37:35;;;;;;;0.40;0.30;;;8.00;99.90;;;;;;5059665;28;20457;-89
2022/04/01 11:40:09;;;;;;;0.30;0.13;;;8.00;99.90;;;;;;5050597;28;20524;-88
2022/04/01 11:42:52;;;;;;;0.70;0.30;;;7.90;99.90;;;;;;5045147;28;20526;-87
2022/04/01 11:45:20;;;;;;;0.40;0.40;;;7.80;99.90;;;;;;5048522;28;20574;-89
2022/04/01 11:47:47;;;;;;;0.30;0.20;;;7.90;99.90;;;;;;5046535;28;21228;-86
2022/04/01 11:50:16;;;;;;;0.83;0.60;;;7.50;99.90;;;;;;5047826;28;20459;-87
2022/04/01 11:52:45;;;;;;;1.57;0.73;;;7.60;99.90;;;;;;5047658;28;20478;-86
2022/04/01 11:55:14;;;;;;;0.30;0.20;;;8.00;99.90;;;;;;5060884;28;20453;-88
2022/04/01 11:57:43;;;;;;;0.30;0.20;;;7.80;99.90;;;;;;5050557;28;20806;-89
2022/04/01 12:00:12;;;;;;;0.30;0.20;;;7.90;99.90;;;;;;5050097;28;20559;-87
2022/04/01 12:02:39;;;;;;;2.63;0.70;;;8.00;99.90;;;;;;5050702;28;20477;-87
2022/04/01 12:05:07;;;;;;;0.30;0.10;;;8.30;99.90;;;;;;5054183;28;20482;-86
2022/04/01 12:10:18;;;;;;;0.40;0.27;;;8.40;99.70;;;;;;5060815;28;20461;-86
2022/04/01 12:12:55;;;;;;;0.30;0.20;;;8.50;97.70;;;;;;5057594;28;20467;-87
2022/04/01 12:15:34;;;;;;;0.30;0.20;;;8.50;98.50;;;;;;5056115;28;20453;-85
2022/04/01 12:18:05;;;;;;;0.50;0.20;;;8.30;98.50;;;;;;5049895;28;20485;-87
2022/04/01 12:20:32;;;;;;;0.30;0.20;;;8.20;98.30;;;;;;5057791;28;20841;-86
2022/04/01 12:23:01;;;;;;;0.30;0.20;;;7.80;98.90;;;;;;5057810;28;20471;-85
2022/04/01 12:25:33;;;;;;;0.97;0.50;;;7.80;99.90;;;;;;5061785;28;20536;-87
2022/04/01 12:28:03;;;;;;;0.30;0.20;;;7.90;99.90;;;;;;5055780;28;20463;-86
2022/04/01 12:30:32;;;;;;;0.30;0.10;;;7.70;99.90;;;;;;5042254;28;20456;-86
2022/04/01 12:33:02;;;;;;;0.30;0.20;;;7.50;99.90;;;;;;5039582;28;20478;-87
2022/04/01 12:35:29;;;;;;;0.30;0.20;;;7.50;99.90;;;;;;5051433;28;20459;-87
2022/04/01 12:38:06;;;;;;;0.30;0.10;;;7.30;99.90;;;;;;5045198;28;20476;-87
2022/04/01 12:40:54;;;;;;;0.30;0.20;;;7.30;99.90;;;;;;5050712;28;20486;-87
2022/04/01 12:43:41;;;;;;;0.30;0.20;;;7.30;99.90;;;;;;5047683;28;21107;-86
2022/04/01 12:46:09;;;;;;;0.33;0.17;;;6.90;99.90;;;;;;5038771;28;20489;-86
2022/04/01 12:48:50;;;;;;;0.30;0.13;;;7.10;99.90;;;;;;5049129;28;21223;-86
2022/04/01 12:51:24;;;;;;;0.30;0.20;;;7.20;99.90;;;;;;5052544;28;20458;-85
2022/04/01 12:53:56;;;;;;;0.63;0.63;;;7.30;99.90;;;;;;5053773;28;21069;-85
2022/04/01 12:56:24;;;;;;;0.40;0.30;;;7.40;99.90;;;;;;5056129;28;20458;-86
2022/04/01 12:58:54;;;;;;;0.40;0.30;;;7.40;99.90;;;;;;5051718;28;20530;-85
2022/04/01 13:01:24;;;;;;;0.30;0.20;;;7.50;99.90;;;;;;5044461;28;20462;-86
2022/04/01 13:03:51;;;;;;;0.50;0.50;;;7.60;99.90;;;;;;5050740;28;20470;-86
2022/04/01 13:06:18;;;;;;;0.40;0.30;;;7.70;99.90;;;;;;5050140;28;20492;-86
2022/04/01 13:08:45;;;;;;;0.30;0.10;;;7.60;99.90;;;;;;5062332;28;20494;-84
2022/04/01 13:11:14;;;;;;;0.37;0.20;;;7.50;99.90;;;;;;5057155;28;20472;-87
2022/04/01 13:13:41;;;;;;;0.50;0.50;;;7.10;99.90;;;;;;5055455;28;20901;-86
2022/04/01 13:16:10;;;;;;;0.30;0.17;;;6.90;99.90;;;;;;5050668;28;20512;-88
2022/04/01 13:18:36;;;;;;;0.40;0.23;;;6.70;99.90;;;;;;5057037;28;20463;-85
2022/04/01 13:21:04;;;;;;;0.30;0.20;;;6.70;99.90;;;;;;5054355;28;20590;-85
2022/04/01 13:23:31;;;;;;;0.30;0.27;;;6.60;99.90;;;;;;5047225;28;20504;-85
2022/04/01 13:25:59;;;;;;;0.30;0.10;;;6.50;99.90;;;;;;5058499;28;20480;-86
2022/04/01 13:28:26;;;;;;;0.70;0.43;;;6.50;99.90;;;;;;5040530;28;20473;-84